»·PEaware :: N747N KDEN-KAMA

N747N :: KDEN-KAMA

FLIGHT INFORMATION

Flight Status: Arrived
Operator: Privately registered:
United States
More flights under this callsign
Pilot: Anonymous 5456 (5456)
Aircraft: BOEING 737-200
(B732)
More flights by this aircraft type
Origin: KDEN Denver Intl
United States
Destination: KAMA Amarillo Intl
United States
More flights between these airports :: More routes between these airports
Route: +PIKES8 PUB J17 PNH
File this flight plan on PilotEdge
Remarks:
Altitude:
(Current/Filed)
31,000ft
Speed:
(Current/Filed)
450kts
Departed: 05-Feb-18 07:43 PM
Arrived: 05-Feb-18 08:41 PM
Distance/Time
Traveled:
312nm/0:57
Distance/Time
To Go:
Arrived

Flight Plot

Page will automatically refresh every two minutes.

Flight plan parsing failed; only flown route is shown


Map Options




Map Legend


Flown Route
Filed Route
Departure Airport
Arrival Airport
Navaid (VOR, NDB)
Fix

Horizontal Profiles

Position Reports

Time Latitude Longitude Heading Altitude Ground
Speed
05-Feb-18 19:31 39.837815 -104.664674 1 5443ft 0kts
05-Feb-18 19:32 39.837815 -104.664674 1 5443ft 0kts
05-Feb-18 19:33 39.837815 -104.664674 1 5443ft 0kts
05-Feb-18 19:34 39.837815 -104.664674 1 5443ft 0kts
05-Feb-18 19:35 39.837815 -104.664674 1 5443ft 0kts
05-Feb-18 19:36 39.837815 -104.664674 1 5443ft 0kts
05-Feb-18 19:37 39.837815 -104.664674 1 5443ft 0kts
05-Feb-18 19:38 39.837815 -104.664674 1 5443ft 0kts
05-Feb-18 19:39 39.837815 -104.664674 0 5443ft 0kts
05-Feb-18 19:40 39.837815 -104.664674 1 5443ft 0kts
05-Feb-18 19:41 39.837815 -104.664674 1 5443ft 0kts
05-Feb-18 19:42 39.837816 -104.664674 1 5443ft 0kts
05-Feb-18 19:43 39.839053 -104.663967 34 5443ft 0kts
05-Feb-18 19:44 39.839085 -104.663939 34 5443ft 4kts
05-Feb-18 19:45 39.837286 -104.662444 181 5443ft 23kts
05-Feb-18 19:46 39.831157 -104.662540 182 5443ft 18kts
05-Feb-18 19:47 39.828452 -104.660881 78 5443ft 11kts
05-Feb-18 19:48 39.829548 -104.660386 0 5443ft 23kts
05-Feb-18 19:49 39.866046 -104.658730 20 7010ft 169kts
05-Feb-18 19:50 39.866617 -104.597906 111 9625ft 223kts
05-Feb-18 19:51 39.835827 -104.510635 111 10069ft 327kts
05-Feb-18 19:52 39.789899 -104.393305 133 10046ft 409kts
05-Feb-18 19:53 39.698352 -104.378702 216 13501ft 313kts
05-Feb-18 19:54 39.614224 -104.412286 186 14283ft 342kts
05-Feb-18 19:55 39.521195 -104.414065 186 15964ft 322kts
05-Feb-18 19:56 39.430477 -104.413888 186 17282ft 335kts
05-Feb-18 19:57 39.333368 -104.413014 186 18050ft 380kts
05-Feb-18 19:58 39.225394 -104.413545 186 18160ft 401kts
05-Feb-18 19:59 39.122652 -104.411978 186 19915ft 378kts
05-Feb-18 20:00 39.018590 -104.409501 186 20859ft 376kts
05-Feb-18 20:01 38.919421 -104.406109 186 23201ft 359kts
05-Feb-18 20:02 38.826796 -104.404139 186 24637ft 361kts
05-Feb-18 20:03 38.727268 -104.401440 186 25798ft 369kts
05-Feb-18 20:04 38.626612 -104.353827 164 26790ft 400kts
05-Feb-18 20:05 38.528230 -104.288627 166 27603ft 405kts
05-Feb-18 20:06 38.425124 -104.265459 208 28281ft 364kts
05-Feb-18 20:07 38.349990 -104.343674 209 28980ft 367kts
05-Feb-18 20:08 38.247214 -104.307550 150 29522ft 442kts
05-Feb-18 20:09 38.145959 -104.223418 159 30030ft 436kts
05-Feb-18 20:10 38.046574 -104.151884 160 30504ft 439kts
05-Feb-18 20:11 37.940374 -104.076645 160 30942ft 444kts
05-Feb-18 20:12 37.835085 -104.002412 160 31067ft 455kts
05-Feb-18 20:13 37.723746 -103.924139 160 31069ft 467kts
05-Feb-18 20:14 37.610971 -103.845132 160 31026ft 476kts
05-Feb-18 20:15 37.495374 -103.764416 160 31119ft 481kts
05-Feb-18 20:16 37.378937 -103.683432 160 31128ft 486kts
05-Feb-18 20:17 37.260860 -103.599850 153 31082ft 499kts
05-Feb-18 20:18 37.149751 -103.494351 150 31095ft 505kts
05-Feb-18 20:19 37.039121 -103.387498 150 31087ft 500kts
05-Feb-18 20:20 36.932989 -103.285311 151 31071ft 483kts
05-Feb-18 20:21 36.830110 -103.186737 151 30413ft 478kts
05-Feb-18 20:22 36.724939 -103.086152 150 28710ft 471kts
05-Feb-18 20:23 36.623339 -102.989377 150 26875ft 453kts
05-Feb-18 20:24 36.524811 -102.895851 149 25058ft 439kts
05-Feb-18 20:25 36.429300 -102.805487 149 23289ft 426kts
05-Feb-18 20:26 36.336621 -102.718080 148 21566ft 414kts
05-Feb-18 20:27 36.246327 -102.633178 148 19887ft 403kts
05-Feb-18 20:28 36.158301 -102.550651 148 18252ft 394kts
05-Feb-18 20:29 36.072457 -102.470397 147 16709ft 384kts
05-Feb-18 20:30 35.989165 -102.392721 147 15570ft 368kts
05-Feb-18 20:31 35.909954 -102.319082 147 14426ft 359kts
05-Feb-18 20:32 35.832006 -102.246793 147 13304ft 352kts
05-Feb-18 20:33 35.754295 -102.174902 146 12194ft 347kts
05-Feb-18 20:34 35.677753 -102.104269 146 11124ft 342kts
05-Feb-18 20:35 35.604615 -102.036874 146 11003ft 313kts
05-Feb-18 20:36 35.537683 -101.975382 146 11001ft 291kts
05-Feb-18 20:37 35.474698 -101.917643 146 10840ft 274kts
05-Feb-18 20:38 35.415721 -101.863775 145 9583ft 263kts
05-Feb-18 20:39 35.350406 -101.838538 186 8231ft 260kts
05-Feb-18 20:40 35.284662 -101.853215 187 7941ft 215kts
05-Feb-18 20:42 35.228936 -101.866944 187 7123ft 184kts
05-Feb-18 20:43 35.190875 -101.844435 137 6022ft 152kts
05-Feb-18 20:44 35.165201 -101.812653 92 5521ft 144kts
05-Feb-18 20:45 35.175200 -101.772325 53 4583ft 123kts
05-Feb-18 20:46 35.196213 -101.744143 52 3934ft 112kts
05-Feb-18 20:47 35.213604 -101.721982 48 3615ft 54kts
05-Feb-18 20:48 35.219985 -101.713041 131 3615ft 10kts
05-Feb-18 20:49 35.217802 -101.710229 112 3615ft 7kts
05-Feb-18 20:50 35.218320 -101.708386 229 3615ft 0kts
05-Feb-18 20:51 35.218309 -101.708399 222 3615ft 0kts
05-Feb-18 20:52 35.218309 -101.708399 222 3615ft 0kts
05-Feb-18 20:53 35.218309 -101.708399 222 3615ft 0kts

Navigation Log

Ident Type
Flight plan parsing failed, navigation log unavailable